CheckWX is a tool to help pilots better visualize weather data.  It is not intended as a substitute for an official pre-flight weather briefing.

12:08:21 UTC

KTTA METAR
Raleigh Exec Jetport at Sanford-Lee County Airport
Sanford, North Carolina, USA
Current

28 mins ago

KTTA 261140Z AUTO 00000KT 10SM CLR 21/19 A3012 RMK AO2 T02080190
Observed
Jun-26 @ 11:40 UTC
Visibility
10 SM
Flight Rules
VFR
Cloud Levels
  • Clear skies
Temperature
21°C / 70°F
Dewpoint
19°C / 66°F
Humidity
88%
Altimeter
30.12" Hg
Pressure
1020.02 hPa
Previous

48 mins ago

KTTA 261120Z AUTO 00000KT 10SM CLR 19/19 A3012 RMK AO2 T01930190
Observed
Jun-26 @ 11:20 UTC
Visibility
10 SM
Flight Rules
VFR
Cloud Levels
  • Clear skies
Temperature
19°C / 66°F
Dewpoint
19°C / 66°F
Humidity
100%
Altimeter
30.12" Hg
Pressure
1020.02 hPa
Previous

1 hour ago

KTTA 261100Z AUTO 00000KT 10SM CLR 19/18 A3012 RMK AO2 T01850182
Observed
Jun-26 @ 11:00 UTC
Visibility
10 SM
Flight Rules
VFR
Cloud Levels
  • Clear skies
Temperature
19°C / 66°F
Dewpoint
18°C / 64°F
Humidity
94%
Altimeter
30.12" Hg
Pressure
1020.02 hPa